sensor_id;sensor_type;location;lat;lon;timestamp;temperature;humidity
46784;DHT22;32544;52.832;13.816;2023-02-20T00:00:26;23.50;46.40
46784;DHT22;32544;52.832;13.816;2023-02-20T00:01:28;23.40;46.00
46784;DHT22;32544;52.832;13.816;2023-02-20T00:02:28;23.40;46.60
46784;DHT22;32544;52.832;13.816;2023-02-20T00:03:31;23.40;46.00
46784;DHT22;32544;52.832;13.816;2023-02-20T00:04:32;23.40;46.30
46784;DHT22;32544;52.832;13.816;2023-02-20T00:05:33;23.40;46.50
46784;DHT22;32544;52.832;13.816;2023-02-20T00:06:33;23.40;46.60
46784;DHT22;32544;52.832;13.816;2023-02-20T00:07:34;23.40;46.80
46784;DHT22;32544;52.832;13.816;2023-02-20T00:08:34;23.50;46.80
46784;DHT22;32544;52.832;13.816;2023-02-20T00:09:36;23.50;46.80
46784;DHT22;32544;52.832;13.816;2023-02-20T00:10:36;23.40;46.80
46784;DHT22;32544;52.832;13.816;2023-02-20T00:11:37;23.40;46.90
46784;DHT22;32544;52.832;13.816;2023-02-20T00:12:37;23.40;47.00
46784;DHT22;32544;52.832;13.816;2023-02-20T00:13:42;23.50;47.10
46784;DHT22;32544;52.832;13.816;2023-02-20T00:14:43;23.50;47.10
46784;DHT22;32544;52.832;13.816;2023-02-20T00:15:44;23.50;47.20
46784;DHT22;32544;52.832;13.816;2023-02-20T00:16:45;23.50;47.20
46784;DHT22;32544;52.832;13.816;2023-02-20T00:17:46;23.60;47.30
46784;DHT22;32544;52.832;13.816;2023-02-20T00:18:47;23.60;47.40
46784;DHT22;32544;52.832;13.816;2023-02-20T00:19:47;23.60;47.40
46784;DHT22;32544;52.832;13.816;2023-02-20T00:20:48;23.60;47.40
46784;DHT22;32544;52.832;13.816;2023-02-20T00:21:48;23.60;47.40
46784;DHT22;32544;52.832;13.816;2023-02-20T00:22:49;23.60;47.50
46784;DHT22;32544;52.832;13.816;2023-02-20T00:23:50;23.70;47.50
46784;DHT22;32544;52.832;13.816;2023-02-20T00:24:51;23.70;47.60
46784;DHT22;32544;52.832;13.816;2023-02-20T00:25:51;23.70;47.60
46784;DHT22;32544;52.832;13.816;2023-02-20T00:26:52;23.70;47.60
46784;DHT22;32544;52.832;13.816;2023-02-20T00:27:53;23.70;47.60
46784;DHT22;32544;52.832;13.816;2023-02-20T00:28:53;23.70;47.60
46784;DHT22;32544;52.832;13.816;2023-02-20T00:29:54;23.80;47.70
46784;DHT22;32544;52.832;13.816;2023-02-20T00:30:54;23.80;47.70
46784;DHT22;32544;52.832;13.816;2023-02-20T00:31:56;23.70;47.70
46784;DHT22;32544;52.832;13.816;2023-02-20T00:32:58;23.80;47.70
46784;DHT22;32544;52.832;13.816;2023-02-20T00:33:59;23.70;48.30
46784;DHT22;32544;52.832;13.816;2023-02-20T00:34:59;23.80;47.90
46784;DHT22;32544;52.832;13.816;2023-02-20T00:36:00;23.80;47.80
46784;DHT22;32544;52.832;13.816;2023-02-20T00:37:00;23.80;47.90
46784;DHT22;32544;52.832;13.816;2023-02-20T00:38:01;23.80;47.90
46784;DHT22;32544;52.832;13.816;2023-02-20T00:39:02;23.80;47.90
46784;DHT22;32544;52.832;13.816;2023-02-20T00:40:02;23.70;47.90
46784;DHT22;32544;52.832;13.816;2023-02-20T00:41:03;23.80;48.00
46784;DHT22;32544;52.832;13.816;2023-02-20T00:42:03;23.80;48.00
46784;DHT22;32544;52.832;13.816;2023-02-20T00:43:04;23.80;48.10
46784;DHT22;32544;52.832;13.816;2023-02-20T00:44:05;23.80;48.20
46784;DHT22;32544;52.832;13.816;2023-02-20T00:45:05;23.80;48.20
46784;DHT22;32544;52.832;13.816;2023-02-20T00:46:09;23.80;48.20
46784;DHT22;32544;52.832;13.816;2023-02-20T00:47:09;23.80;48.20
46784;DHT22;32544;52.832;13.816;2023-02-20T00:48:10;23.80;48.20
46784;DHT22;32544;52.832;13.816;2023-02-20T00:49:11;23.80;48.30
46784;DHT22;32544;52.832;13.816;2023-02-20T00:50:21;23.80;48.30
46784;DHT22;32544;52.832;13.816;2023-02-20T00:51:21;23.80;48.30
46784;DHT22;32544;52.832;13.816;2023-02-20T00:52:22;23.80;48.30
46784;DHT22;32544;52.832;13.816;2023-02-20T00:53:23;23.80;48.30
46784;DHT22;32544;52.832;13.816;2023-02-20T00:54:24;23.70;48.30
46784;DHT22;32544;52.832;13.816;2023-02-20T00:55:25;23.80;48.40
46784;DHT22;32544;52.832;13.816;2023-02-20T00:56:25;23.80;48.40
46784;DHT22;32544;52.832;13.816;2023-02-20T00:57:26;23.80;48.40
46784;DHT22;32544;52.832;13.816;2023-02-20T00:58:28;23.80;48.50
46784;DHT22;32544;52.832;13.816;2023-02-20T00:59:29;23.80;48.50
46784;DHT22;32544;52.832;13.816;2023-02-20T01:00:29;23.80;48.50
46784;DHT22;32544;52.832;13.816;2023-02-20T01:01:31;23.70;48.50
46784;DHT22;32544;52.832;13.816;2023-02-20T01:02:31;23.70;48.50
46784;DHT22;32544;52.832;13.816;2023-02-20T01:03:32;23.70;48.50
46784;DHT22;32544;52.832;13.816;2023-02-20T01:04:33;23.70;48.60
46784;DHT22;32544;52.832;13.816;2023-02-20T01:05:33;23.70;48.60
46784;DHT22;32544;52.832;13.816;2023-02-20T01:06:34;23.70;48.60
46784;DHT22;32544;52.832;13.816;2023-02-20T01:07:34;23.70;48.70
46784;DHT22;32544;52.832;13.816;2023-02-20T01:08:35;23.70;48.70
46784;DHT22;32544;52.832;13.816;2023-02-20T01:09:36;23.70;48.70
46784;DHT22;32544;52.832;13.816;2023-02-20T01:10:37;23.70;48.70
46784;DHT22;32544;52.832;13.816;2023-02-20T01:11:40;23.70;48.70
46784;DHT22;32544;52.832;13.816;2023-02-20T01:12:41;23.70;48.80
46784;DHT22;32544;52.832;13.816;2023-02-20T01:13:41;23.70;48.70
46784;DHT22;32544;52.832;13.816;2023-02-20T01:14:42;23.70;48.80
46784;DHT22;32544;52.832;13.816;2023-02-20T01:15:42;23.70;48.80
46784;DHT22;32544;52.832;13.816;2023-02-20T01:16:43;23.70;48.90
46784;DHT22;32544;52.832;13.816;2023-02-20T01:17:45;23.70;48.90
46784;DHT22;32544;52.832;13.816;2023-02-20T01:18:47;23.70;48.90
46784;DHT22;32544;52.832;13.816;2023-02-20T01:19:48;23.70;48.90
46784;DHT22;32544;52.832;13.816;2023-02-20T01:20:48;23.70;48.90
46784;DHT22;32544;52.832;13.816;2023-02-20T01:21:49;23.80;49.00
46784;DHT22;32544;52.832;13.816;2023-02-20T01:22:50;23.70;48.90
46784;DHT22;32544;52.832;13.816;2023-02-20T01:23:50;23.70;48.90
46784;DHT22;32544;52.832;13.816;2023-02-20T01:24:51;23.80;49.00
46784;DHT22;32544;52.832;13.816;2023-02-20T01:25:52;23.70;48.90
46784;DHT22;32544;52.832;13.816;2023-02-20T01:26:52;23.70;48.90
46784;DHT22;32544;52.832;13.816;2023-02-20T01:27:53;23.70;48.90
46784;DHT22;32544;52.832;13.816;2023-02-20T01:28:54;23.70;49.00
46784;DHT22;32544;52.832;13.816;2023-02-20T01:29:54;23.70;49.00
46784;DHT22;32544;52.832;13.816;2023-02-20T01:30:55;23.70;49.00
46784;DHT22;32544;52.832;13.816;2023-02-20T01:31:55;23.70;49.00
46784;DHT22;32544;52.832;13.816;2023-02-20T01:32:56;23.70;49.00
46784;DHT22;32544;52.832;13.816;2023-02-20T01:33:57;23.70;49.10
46784;DHT22;32544;52.832;13.816;2023-02-20T01:34:57;23.70;49.10
46784;DHT22;32544;52.832;13.816;2023-02-20T01:35:58;23.70;49.10
46784;DHT22;32544;52.832;13.816;2023-02-20T01:36:58;23.60;49.10
46784;DHT22;32544;52.832;13.816;2023-02-20T01:37:59;23.70;49.10
46784;DHT22;32544;52.832;13.816;2023-02-20T01:39:00;23.70;49.10
46784;DHT22;32544;52.832;13.816;2023-02-20T01:40:01;23.70;49.10
46784;DHT22;32544;52.832;13.816;2023-02-20T01:41:02;23.70;49.20
46784;DHT22;32544;52.832;13.816;2023-02-20T01:42:03;23.60;49.10
46784;DHT22;32544;52.832;13.816;2023-02-20T01:43:05;23.70;49.20
46784;DHT22;32544;52.832;13.816;2023-02-20T01:44:10;23.70;49.20
46784;DHT22;32544;52.832;13.816;2023-02-20T01:45:15;23.70;49.20
46784;DHT22;32544;52.832;13.816;2023-02-20T01:47:27;23.70;49.20
46784;DHT22;32544;52.832;13.816;2023-02-20T01:48:28;23.70;49.20
46784;DHT22;32544;52.832;13.816;2023-02-20T01:49:30;23.70;49.30
46784;DHT22;32544;52.832;13.816;2023-02-20T01:50:36;23.60;49.20
46784;DHT22;32544;52.832;13.816;2023-02-20T01:51:40;23.70;49.10
46784;DHT22;32544;52.832;13.816;2023-02-20T01:52:42;23.70;49.00
46784;DHT22;32544;52.832;13.816;2023-02-20T01:53:43;23.70;49.00
46784;DHT22;32544;52.832;13.816;2023-02-20T01:54:45;23.60;49.00
46784;DHT22;32544;52.832;13.816;2023-02-20T01:55:54;23.60;48.90
46784;DHT22;32544;52.832;13.816;2023-02-20T01:56:56;23.70;49.00
46784;DHT22;32544;52.832;13.816;2023-02-20T01:57:59;23.70;49.00
46784;DHT22;32544;52.832;13.816;2023-02-20T01:59:02;23.70;49.00
46784;DHT22;32544;52.832;13.816;2023-02-20T02:00:08;23.70;49.00
46784;DHT22;32544;52.832;13.816;2023-02-20T02:01:15;23.70;49.00
46784;DHT22;32544;52.832;13.816;2023-02-20T02:02:15;23.70;49.00
46784;DHT22;32544;52.832;13.816;2023-02-20T02:03:17;23.70;49.10
46784;DHT22;32544;52.832;13.816;2023-02-20T02:04:18;23.70;49.20
46784;DHT22;32544;52.832;13.816;2023-02-20T02:05:22;23.70;49.10
46784;DHT22;32544;52.832;13.816;2023-02-20T02:06:27;23.70;49.10
46784;DHT22;32544;52.832;13.816;2023-02-20T02:07:29;23.70;49.10
46784;DHT22;32544;52.832;13.816;2023-02-20T02:08:30;23.70;49.10
46784;DHT22;32544;52.832;13.816;2023-02-20T02:09:51;23.70;49.20
46784;DHT22;32544;52.832;13.816;2023-02-20T02:11:07;23.70;49.20
46784;DHT22;32544;52.832;13.816;2023-02-20T02:12:08;23.70;49.20
46784;DHT22;32544;52.832;13.816;2023-02-20T02:13:10;23.70;49.20
46784;DHT22;32544;52.832;13.816;2023-02-20T02:14:13;23.70;49.20
46784;DHT22;32544;52.832;13.816;2023-02-20T02:15:14;23.70;49.20
46784;DHT22;32544;52.832;13.816;2023-02-20T02:23:51;23.70;49.40
46784;DHT22;32544;52.832;13.816;2023-02-20T02:27:12;23.70;49.50
46784;DHT22;32544;52.832;13.816;2023-02-20T02:28:31;23.70;49.80
46784;DHT22;32544;52.832;13.816;2023-02-20T02:29:39;23.70;49.50
46784;DHT22;32544;52.832;13.816;2023-02-20T02:32:08;23.70;49.60
46784;DHT22;32544;52.832;13.816;2023-02-20T02:41:21;23.70;49.70
46784;DHT22;32544;52.832;13.816;2023-02-20T02:42:33;23.70;49.60
46784;DHT22;32544;52.832;13.816;2023-02-20T02:46:15;23.70;49.70
46784;DHT22;32544;52.832;13.816;2023-02-20T02:47:26;23.70;49.60
46784;DHT22;32544;52.832;13.816;2023-02-20T02:49:44;23.70;49.60
46784;DHT22;32544;52.832;13.816;2023-02-20T02:50:46;23.70;49.70
46784;DHT22;32544;52.832;13.816;2023-02-20T02:51:47;23.70;49.70
46784;DHT22;32544;52.832;13.816;2023-02-20T02:52:48;23.70;49.70
46784;DHT22;32544;52.832;13.816;2023-02-20T02:54:09;23.70;49.70
46784;DHT22;32544;52.832;13.816;2023-02-20T02:55:10;23.80;49.80
46784;DHT22;32544;52.832;13.816;2023-02-20T02:56:11;23.70;49.70
46784;DHT22;32544;52.832;13.816;2023-02-20T02:57:25;23.70;49.70
46784;DHT22;32544;52.832;13.816;2023-02-20T02:58:26;23.70;49.80
46784;DHT22;32544;52.832;13.816;2023-02-20T02:59:29;23.70;49.80
46784;DHT22;32544;52.832;13.816;2023-02-20T03:00:51;23.70;49.80
46784;DHT22;32544;52.832;13.816;2023-02-20T03:01:54;23.70;49.80
46784;DHT22;32544;52.832;13.816;2023-02-20T03:03:57;23.70;49.80
46784;DHT22;32544;52.832;13.816;2023-02-20T03:04:58;23.70;49.90
46784;DHT22;32544;52.832;13.816;2023-02-20T03:06:02;23.70;49.90
46784;DHT22;32544;52.832;13.816;2023-02-20T03:07:07;23.70;49.80
46784;DHT22;32544;52.832;13.816;2023-02-20T03:08:09;23.70;49.90
46784;DHT22;32544;52.832;13.816;2023-02-20T03:09:18;23.70;49.90
46784;DHT22;32544;52.832;13.816;2023-02-20T03:10:21;23.70;49.90
46784;DHT22;32544;52.832;13.816;2023-02-20T03:11:31;23.70;49.90
46784;DHT22;32544;52.832;13.816;2023-02-20T03:12:33;23.70;49.90
46784;DHT22;32544;52.832;13.816;2023-02-20T03:13:38;23.70;49.90
46784;DHT22;32544;52.832;13.816;2023-02-20T03:14:58;23.70;49.90
46784;DHT22;32544;52.832;13.816;2023-02-20T03:16:22;23.70;49.90
46784;DHT22;32544;52.832;13.816;2023-02-20T03:17:29;23.70;49.90
46784;DHT22;32544;52.832;13.816;2023-02-20T03:18:33;23.70;50.00
46784;DHT22;32544;52.832;13.816;2023-02-20T03:19:35;23.70;50.00
46784;DHT22;32544;52.832;13.816;2023-02-20T03:20:41;23.70;50.00
46784;DHT22;32544;52.832;13.816;2023-02-20T03:21:43;23.70;50.00
46784;DHT22;32544;52.832;13.816;2023-02-20T03:23:50;23.70;50.00
46784;DHT22;32544;52.832;13.816;2023-02-20T03:24:59;23.70;50.00
46784;DHT22;32544;52.832;13.816;2023-02-20T03:26:05;23.70;50.00
46784;DHT22;32544;52.832;13.816;2023-02-20T03:27:07;23.70;49.90
46784;DHT22;32544;52.832;13.816;2023-02-20T03:28:08;23.70;49.90
46784;DHT22;32544;52.832;13.816;2023-02-20T03:29:11;23.80;49.90
46784;DHT22;32544;52.832;13.816;2023-02-20T03:30:36;23.80;49.90
46784;DHT22;32544;52.832;13.816;2023-02-20T03:31:40;23.80;49.90
46784;DHT22;32544;52.832;13.816;2023-02-20T03:32:43;23.80;49.90
46784;DHT22;32544;52.832;13.816;2023-02-20T03:35:33;23.80;49.80
46784;DHT22;32544;52.832;13.816;2023-02-20T03:36:58;23.90;49.70
46784;DHT22;32544;52.832;13.816;2023-02-20T03:38:19;23.90;49.50
46784;DHT22;32544;52.832;13.816;2023-02-20T03:39:41;23.90;49.50
46784;DHT22;32544;52.832;13.816;2023-02-20T03:41:02;23.90;49.40
46784;DHT22;32544;52.832;13.816;2023-02-20T03:42:22;23.90;49.40
46784;DHT22;32544;52.832;13.816;2023-02-20T03:43:55;23.90;49.30
46784;DHT22;32544;52.832;13.816;2023-02-20T03:44:57;23.90;49.20
46784;DHT22;32544;52.832;13.816;2023-02-20T03:46:00;23.90;49.20
46784;DHT22;32544;52.832;13.816;2023-02-20T03:47:02;23.90;49.20
46784;DHT22;32544;52.832;13.816;2023-02-20T03:48:09;23.90;49.10
46784;DHT22;32544;52.832;13.816;2023-02-20T03:49:19;23.90;49.10
46784;DHT22;32544;52.832;13.816;2023-02-20T03:50:21;24.00;49.10
46784;DHT22;32544;52.832;13.816;2023-02-20T03:51:40;24.00;49.10
46784;DHT22;32544;52.832;13.816;2023-02-20T03:52:48;24.00;49.00
46784;DHT22;32544;52.832;13.816;2023-02-20T03:53:50;24.00;49.00
46784;DHT22;32544;52.832;13.816;2023-02-20T03:54:54;23.90;48.90
46784;DHT22;32544;52.832;13.816;2023-02-20T03:55:55;23.90;48.90
46784;DHT22;32544;52.832;13.816;2023-02-20T03:57:01;24.00;49.00
46784;DHT22;32544;52.832;13.816;2023-02-20T03:58:03;24.00;49.00
46784;DHT22;32544;52.832;13.816;2023-02-20T03:59:10;23.90;48.90
46784;DHT22;32544;52.832;13.816;2023-02-20T04:00:13;23.90;49.60
46784;DHT22;32544;52.832;13.816;2023-02-20T04:01:24;24.00;48.90
46784;DHT22;32544;52.832;13.816;2023-02-20T04:02:29;24.00;48.90
46784;DHT22;32544;52.832;13.816;2023-02-20T04:03:33;24.00;48.90
46784;DHT22;32544;52.832;13.816;2023-02-20T04:04:37;23.90;48.80
46784;DHT22;32544;52.832;13.816;2023-02-20T04:05:41;24.00;48.80
46784;DHT22;32544;52.832;13.816;2023-02-20T04:06:43;23.90;48.80
46784;DHT22;32544;52.832;13.816;2023-02-20T04:08:51;23.90;48.80
46784;DHT22;32544;52.832;13.816;2023-02-20T04:09:54;23.90;48.80
46784;DHT22;32544;52.832;13.816;2023-02-20T04:11:02;23.90;48.80
46784;DHT22;32544;52.832;13.816;2023-02-20T04:12:05;23.90;48.80
46784;DHT22;32544;52.832;13.816;2023-02-20T04:13:08;23.90;48.80
46784;DHT22;32544;52.832;13.816;2023-02-20T04:14:11;23.90;48.80
46784;DHT22;32544;52.832;13.816;2023-02-20T04:15:12;23.90;48.80
46784;DHT22;32544;52.832;13.816;2023-02-20T04:16:13;23.90;48.80
46784;DHT22;32544;52.832;13.816;2023-02-20T04:17:15;23.90;48.80
46784;DHT22;32544;52.832;13.816;2023-02-20T04:18:17;23.90;48.80
46784;DHT22;32544;52.832;13.816;2023-02-20T04:19:19;23.80;48.70
46784;DHT22;32544;52.832;13.816;2023-02-20T04:20:21;23.80;48.70
46784;DHT22;32544;52.832;13.816;2023-02-20T04:22:42;23.80;48.70
46784;DHT22;32544;52.832;13.816;2023-02-20T04:23:44;23.80;48.80
46784;DHT22;32544;52.832;13.816;2023-02-20T04:24:48;23.80;48.70
46784;DHT22;32544;52.832;13.816;2023-02-20T04:25:57;23.80;48.80
46784;DHT22;32544;52.832;13.816;2023-02-20T04:27:01;23.70;48.70
46784;DHT22;32544;52.832;13.816;2023-02-20T04:28:02;23.70;48.70
46784;DHT22;32544;52.832;13.816;2023-02-20T04:29:05;23.70;48.70
46784;DHT22;32544;52.832;13.816;2023-02-20T04:30:07;23.70;48.70
46784;DHT22;32544;52.832;13.816;2023-02-20T04:31:12;23.70;48.70
46784;DHT22;32544;52.832;13.816;2023-02-20T04:32:14;23.70;48.80
46784;DHT22;32544;52.832;13.816;2023-02-20T04:33:15;23.70;49.50
46784;DHT22;32544;52.832;13.816;2023-02-20T04:34:16;23.70;48.80
46784;DHT22;32544;52.832;13.816;2023-02-20T04:35:18;23.70;48.80
46784;DHT22;32544;52.832;13.816;2023-02-20T04:36:20;23.70;48.80
46784;DHT22;32544;52.832;13.816;2023-02-20T04:37:23;23.70;48.80
46784;DHT22;32544;52.832;13.816;2023-02-20T04:38:26;23.70;48.80
46784;DHT22;32544;52.832;13.816;2023-02-20T04:39:27;23.70;48.90
46784;DHT22;32544;52.832;13.816;2023-02-20T04:40:28;23.60;48.80
46784;DHT22;32544;52.832;13.816;2023-02-20T04:41:28;23.60;48.80
46784;DHT22;32544;52.832;13.816;2023-02-20T04:42:29;23.60;48.80
46784;DHT22;32544;52.832;13.816;2023-02-20T04:43:30;23.70;48.80
46784;DHT22;32544;52.832;13.816;2023-02-20T04:44:31;23.60;48.70
46784;DHT22;32544;52.832;13.816;2023-02-20T04:45:33;23.60;48.80
46784;DHT22;32544;52.832;13.816;2023-02-20T04:46:34;23.60;48.80
46784;DHT22;32544;52.832;13.816;2023-02-20T04:47:34;23.60;49.40
46784;DHT22;32544;52.832;13.816;2023-02-20T04:48:35;23.60;48.70
46784;DHT22;32544;52.832;13.816;2023-02-20T04:49:36;23.60;48.70
46784;DHT22;32544;52.832;13.816;2023-02-20T04:50:39;23.60;48.70
46784;DHT22;32544;52.832;13.816;2023-02-20T04:51:40;23.60;48.70
46784;DHT22;32544;52.832;13.816;2023-02-20T04:52:41;23.60;48.70
46784;DHT22;32544;52.832;13.816;2023-02-20T04:53:42;23.60;48.70
46784;DHT22;32544;52.832;13.816;2023-02-20T04:54:43;23.60;48.70
46784;DHT22;32544;52.832;13.816;2023-02-20T04:55:46;23.60;48.70
46784;DHT22;32544;52.832;13.816;2023-02-20T04:56:50;23.60;48.70
46784;DHT22;32544;52.832;13.816;2023-02-20T04:57:51;23.60;48.80
46784;DHT22;32544;52.832;13.816;2023-02-20T04:58:54;23.60;48.70
46784;DHT22;32544;52.832;13.816;2023-02-20T04:59:56;23.60;48.70
46784;DHT22;32544;52.832;13.816;2023-02-20T05:00:57;23.60;48.70
46784;DHT22;32544;52.832;13.816;2023-02-20T05:01:57;23.60;48.70
46784;DHT22;32544;52.832;13.816;2023-02-20T05:03:00;23.60;48.70
46784;DHT22;32544;52.832;13.816;2023-02-20T05:04:01;23.60;48.70
46784;DHT22;32544;52.832;13.816;2023-02-20T05:05:01;23.60;48.70
46784;DHT22;32544;52.832;13.816;2023-02-20T05:06:02;23.60;48.80
46784;DHT22;32544;52.832;13.816;2023-02-20T05:07:02;23.60;48.80
46784;DHT22;32544;52.832;13.816;2023-02-20T05:08:04;23.60;48.70
46784;DHT22;32544;52.832;13.816;2023-02-20T05:09:05;23.60;48.70
46784;DHT22;32544;52.832;13.816;2023-02-20T05:10:11;23.60;48.70
46784;DHT22;32544;52.832;13.816;2023-02-20T05:11:12;23.60;48.70
46784;DHT22;32544;52.832;13.816;2023-02-20T05:12:13;23.60;48.70
46784;DHT22;32544;52.832;13.816;2023-02-20T05:13:13;23.60;48.70
46784;DHT22;32544;52.832;13.816;2023-02-20T05:14:14;23.60;48.70
46784;DHT22;32544;52.832;13.816;2023-02-20T05:15:15;23.50;48.70
46784;DHT22;32544;52.832;13.816;2023-02-20T05:16:15;23.60;48.70
46784;DHT22;32544;52.832;13.816;2023-02-20T05:17:16;23.60;48.80
46784;DHT22;32544;52.832;13.816;2023-02-20T05:18:26;23.60;48.70
46784;DHT22;32544;52.832;13.816;2023-02-20T05:19:27;23.60;48.80
46784;DHT22;32544;52.832;13.816;2023-02-20T05:20:28;23.60;48.70
46784;DHT22;32544;52.832;13.816;2023-02-20T05:21:47;23.60;48.70
46784;DHT22;32544;52.832;13.816;2023-02-20T05:23:06;23.60;48.70
46784;DHT22;32544;52.832;13.816;2023-02-20T05:24:07;23.50;48.60
46784;DHT22;32544;52.832;13.816;2023-02-20T05:25:07;23.60;48.70
46784;DHT22;32544;52.832;13.816;2023-02-20T05:26:09;23.60;48.70
46784;DHT22;32544;52.832;13.816;2023-02-20T05:27:10;23.50;48.60
46784;DHT22;32544;52.832;13.816;2023-02-20T05:28:11;23.60;48.70
46784;DHT22;32544;52.832;13.816;2023-02-20T05:29:11;23.50;48.70
46784;DHT22;32544;52.832;13.816;2023-02-20T05:30:13;23.50;48.60
46784;DHT22;32544;52.832;13.816;2023-02-20T05:31:13;23.60;48.60
46784;DHT22;32544;52.832;13.816;2023-02-20T05:32:14;23.50;48.60
46784;DHT22;32544;52.832;13.816;2023-02-20T05:33:15;23.50;48.70
46784;DHT22;32544;52.832;13.816;2023-02-20T05:34:16;23.60;48.60
46784;DHT22;32544;52.832;13.816;2023-02-20T05:35:17;23.50;48.60
46784;DHT22;32544;52.832;13.816;2023-02-20T05:36:17;23.60;48.60
46784;DHT22;32544;52.832;13.816;2023-02-20T05:37:18;23.60;48.60
46784;DHT22;32544;52.832;13.816;2023-02-20T05:38:19;23.60;48.60
46784;DHT22;32544;52.832;13.816;2023-02-20T05:39:20;23.60;48.50
46784;DHT22;32544;52.832;13.816;2023-02-20T05:40:20;23.60;48.50
46784;DHT22;32544;52.832;13.816;2023-02-20T05:41:21;23.60;48.50
46784;DHT22;32544;52.832;13.816;2023-02-20T05:42:21;23.60;48.50
46784;DHT22;32544;52.832;13.816;2023-02-20T05:43:22;23.60;48.50
46784;DHT22;32544;52.832;13.816;2023-02-20T05:44:23;23.50;48.40
46784;DHT22;32544;52.832;13.816;2023-02-20T05:45:23;23.60;48.40
46784;DHT22;32544;52.832;13.816;2023-02-20T05:46:24;23.60;48.40
46784;DHT22;32544;52.832;13.816;2023-02-20T05:47:25;23.60;48.40
46784;DHT22;32544;52.832;13.816;2023-02-20T05:48:26;23.60;48.40
46784;DHT22;32544;52.832;13.816;2023-02-20T05:49:26;23.60;48.40
46784;DHT22;32544;52.832;13.816;2023-02-20T05:50:27;23.60;48.40
46784;DHT22;32544;52.832;13.816;2023-02-20T05:51:28;23.70;48.40
46784;DHT22;32544;52.832;13.816;2023-02-20T05:52:28;23.70;48.40
46784;DHT22;32544;52.832;13.816;2023-02-20T05:53:29;23.70;48.40
46784;DHT22;32544;52.832;13.816;2023-02-20T05:54:30;23.70;48.40
46784;DHT22;32544;52.832;13.816;2023-02-20T05:55:31;23.70;48.30
46784;DHT22;32544;52.832;13.816;2023-02-20T05:56:31;23.70;48.30
46784;DHT22;32544;52.832;13.816;2023-02-20T05:57:33;23.70;48.30
46784;DHT22;32544;52.832;13.816;2023-02-20T05:58:34;23.70;48.30
46784;DHT22;32544;52.832;13.816;2023-02-20T05:59:35;23.70;48.20
46784;DHT22;32544;52.832;13.816;2023-02-20T06:00:35;23.70;48.20
46784;DHT22;32544;52.832;13.816;2023-02-20T06:01:36;23.70;48.20
46784;DHT22;32544;52.832;13.816;2023-02-20T06:02:37;23.70;48.20
46784;DHT22;32544;52.832;13.816;2023-02-20T06:03:37;23.70;48.20
46784;DHT22;32544;52.832;13.816;2023-02-20T06:04:38;23.70;48.20
46784;DHT22;32544;52.832;13.816;2023-02-20T06:05:38;23.70;48.80
46784;DHT22;32544;52.832;13.816;2023-02-20T06:06:39;23.70;48.20
46784;DHT22;32544;52.832;13.816;2023-02-20T06:07:44;23.70;48.20
46784;DHT22;32544;52.832;13.816;2023-02-20T06:08:45;23.70;48.20
46784;DHT22;32544;52.832;13.816;2023-02-20T06:09:46;23.70;48.20
46784;DHT22;32544;52.832;13.816;2023-02-20T06:10:46;23.70;48.20
46784;DHT22;32544;52.832;13.816;2023-02-20T06:11:51;23.70;48.10
46784;DHT22;32544;52.832;13.816;2023-02-20T06:12:51;23.70;48.10
46784;DHT22;32544;52.832;13.816;2023-02-20T06:13:52;23.70;48.10
46784;DHT22;32544;52.832;13.816;2023-02-20T06:14:52;23.70;48.20
46784;DHT22;32544;52.832;13.816;2023-02-20T06:15:53;23.70;48.20
46784;DHT22;32544;52.832;13.816;2023-02-20T06:16:55;23.70;48.20
46784;DHT22;32544;52.832;13.816;2023-02-20T06:17:56;23.70;48.10
46784;DHT22;32544;52.832;13.816;2023-02-20T06:18:56;23.70;48.20
46784;DHT22;32544;52.832;13.816;2023-02-20T06:19:59;23.70;48.20
46784;DHT22;32544;52.832;13.816;2023-02-20T06:20:59;23.70;48.20
46784;DHT22;32544;52.832;13.816;2023-02-20T06:22:00;23.70;48.20
46784;DHT22;32544;52.832;13.816;2023-02-20T06:23:01;23.70;48.20
46784;DHT22;32544;52.832;13.816;2023-02-20T06:24:02;23.70;48.30
46784;DHT22;32544;52.832;13.816;2023-02-20T06:25:02;23.60;48.10
46784;DHT22;32544;52.832;13.816;2023-02-20T06:26:04;23.70;48.20
46784;DHT22;32544;52.832;13.816;2023-02-20T06:27:04;23.70;48.20
46784;DHT22;32544;52.832;13.816;2023-02-20T06:28:07;23.70;48.20
46784;DHT22;32544;52.832;13.816;2023-02-20T06:29:08;23.70;48.20
46784;DHT22;32544;52.832;13.816;2023-02-20T06:30:09;23.70;48.20
46784;DHT22;32544;52.832;13.816;2023-02-20T06:31:10;23.70;48.20
46784;DHT22;32544;52.832;13.816;2023-02-20T06:32:11;23.70;48.20
46784;DHT22;32544;52.832;13.816;2023-02-20T06:33:11;23.70;48.20
46784;DHT22;32544;52.832;13.816;2023-02-20T06:34:12;23.70;48.20
46784;DHT22;32544;52.832;13.816;2023-02-20T06:35:13;23.70;48.20
46784;DHT22;32544;52.832;13.816;2023-02-20T06:36:21;23.70;48.10
46784;DHT22;32544;52.832;13.816;2023-02-20T06:37:22;23.70;48.20
46784;DHT22;32544;52.832;13.816;2023-02-20T06:38:23;23.60;48.10
46784;DHT22;32544;52.832;13.816;2023-02-20T06:39:23;23.60;48.10
46784;DHT22;32544;52.832;13.816;2023-02-20T06:40:24;23.70;48.20
46784;DHT22;32544;52.832;13.816;2023-02-20T06:41:24;23.70;48.20
46784;DHT22;32544;52.832;13.816;2023-02-20T06:42:25;23.70;48.20
46784;DHT22;32544;52.832;13.816;2023-02-20T06:43:26;23.60;48.10
46784;DHT22;32544;52.832;13.816;2023-02-20T06:44:26;23.60;48.10
46784;DHT22;32544;52.832;13.816;2023-02-20T06:45:27;23.60;48.10
46784;DHT22;32544;52.832;13.816;2023-02-20T06:46:27;23.60;48.10
46784;DHT22;32544;52.832;13.816;2023-02-20T06:47:28;23.60;48.10
46784;DHT22;32544;52.832;13.816;2023-02-20T06:48:28;23.60;48.10
46784;DHT22;32544;52.832;13.816;2023-02-20T06:49:29;23.60;48.10
46784;DHT22;32544;52.832;13.816;2023-02-20T06:50:29;23.60;48.10
46784;DHT22;32544;52.832;13.816;2023-02-20T06:51:31;23.60;48.10
46784;DHT22;32544;52.832;13.816;2023-02-20T06:52:31;23.60;48.10
46784;DHT22;32544;52.832;13.816;2023-02-20T06:53:32;23.60;48.10
46784;DHT22;32544;52.832;13.816;2023-02-20T06:54:37;23.60;48.10
46784;DHT22;32544;52.832;13.816;2023-02-20T06:55:37;23.60;48.20
46784;DHT22;32544;52.832;13.816;2023-02-20T06:56:38;23.60;48.10
46784;DHT22;32544;52.832;13.816;2023-02-20T06:57:39;23.60;48.10
46784;DHT22;32544;52.832;13.816;2023-02-20T06:58:39;23.60;48.10
46784;DHT22;32544;52.832;13.816;2023-02-20T06:59:40;23.60;48.10
46784;DHT22;32544;52.832;13.816;2023-02-20T07:00:42;23.60;48.10